createdAt,value
2023-05-06T00:00:37.734Z,51.179279
2023-05-06T00:01:37.633Z,51.179207
2023-05-06T00:02:37.802Z,51.179214
2023-05-06T00:03:37.781Z,51.179230
2023-05-06T00:04:37.610Z,51.179230
2023-05-06T00:05:37.618Z,51.179222
2023-05-06T00:06:37.577Z,51.179192
2023-05-06T00:07:37.568Z,51.179226
2023-05-06T00:08:37.530Z,51.179260
2023-05-06T00:09:37.550Z,51.179272
2023-05-06T00:10:37.519Z,51.179298
2023-05-06T00:11:37.538Z,51.179298
2023-05-06T00:12:37.529Z,51.179295
2023-05-06T00:13:37.499Z,51.179279
2023-05-06T00:14:37.502Z,51.179268
2023-05-06T00:15:37.463Z,51.179226
2023-05-06T00:16:37.492Z,51.179188
2023-05-06T00:17:37.488Z,51.179214
2023-05-06T00:18:37.424Z,51.179260
2023-05-06T00:19:38.434Z,51.179256
2023-05-06T00:20:37.421Z,51.179230
2023-05-06T00:21:37.423Z,51.179222
2023-05-06T00:22:37.392Z,51.179256
2023-05-06T00:23:37.380Z,51.179241
2023-05-06T00:24:37.382Z,51.179218
2023-05-06T00:25:37.350Z,51.179256
2023-05-06T00:26:37.404Z,51.179279
2023-05-06T00:27:37.343Z,51.179298
2023-05-06T00:28:37.304Z,51.179279
2023-05-06T00:29:38.332Z,51.179241
2023-05-06T00:30:37.303Z,51.179245
2023-05-06T00:31:37.316Z,51.179237
2023-05-06T00:32:37.285Z,51.179264
2023-05-06T00:33:37.299Z,51.179272
2023-05-06T00:34:37.253Z,51.179253
2023-05-06T00:35:37.247Z,51.179249
2023-05-06T00:36:37.259Z,51.179237
2023-05-06T00:37:37.246Z,51.179226
2023-05-06T00:38:37.215Z,51.179234
2023-05-06T00:39:37.223Z,51.179272
2023-05-06T00:40:37.187Z,51.179279
2023-05-06T00:41:37.196Z,51.179306
2023-05-06T00:42:37.257Z,51.179287
2023-05-06T00:43:37.161Z,51.179256
2023-05-06T00:44:37.158Z,51.179256
2023-05-06T00:45:37.160Z,51.179276
2023-05-06T00:46:37.126Z,51.179283
2023-05-06T00:47:37.127Z,51.179291
2023-05-06T00:48:37.105Z,51.179283
2023-05-06T00:49:37.100Z,51.179249
2023-05-06T00:50:37.079Z,51.179253
2023-05-06T00:51:37.060Z,51.179272
2023-05-06T00:52:37.052Z,51.179260
2023-05-06T00:53:37.061Z,51.179268
2023-05-06T00:54:37.054Z,51.179268
2023-05-06T00:55:37.043Z,51.179268
2023-05-06T00:56:37.025Z,51.179253
2023-05-06T00:57:36.998Z,51.179253
2023-05-06T00:58:36.985Z,51.179211
2023-05-06T00:59:37.012Z,51.179237
2023-05-06T01:00:36.971Z,51.179253
2023-05-06T01:01:36.963Z,51.179268
2023-05-06T01:02:46.573Z,51.179241
2023-05-06T01:03:39.009Z,51.179264
2023-05-06T01:04:36.926Z,51.179260
2023-05-06T01:05:37.925Z,51.179264
2023-05-06T01:06:36.920Z,51.179260
2023-05-06T01:07:36.892Z,51.179245
2023-05-06T01:08:36.892Z,51.179241
2023-05-06T01:09:36.875Z,51.179241
2023-05-06T01:10:36.858Z,51.179222
2023-05-06T01:11:36.854Z,51.179230
2023-05-06T01:12:36.880Z,51.179241
2023-05-06T01:13:36.817Z,51.179218
2023-05-06T01:14:36.940Z,51.179226
2023-05-06T01:15:36.816Z,51.179230
2023-05-06T01:16:36.801Z,51.179184
2023-05-06T01:17:37.831Z,51.179180
2023-05-06T01:18:36.763Z,51.179161
2023-05-06T01:19:36.760Z,51.179192
2023-05-06T01:20:36.749Z,51.179234
2023-05-06T01:21:36.745Z,51.179203
2023-05-06T01:22:36.721Z,51.179195
2023-05-06T01:23:36.714Z,51.179218
2023-05-06T01:24:36.754Z,51.179226
2023-05-06T01:25:36.680Z,51.179268
2023-05-06T01:26:36.719Z,51.179245
2023-05-06T01:27:36.665Z,51.179222
2023-05-06T01:28:36.649Z,51.179234
2023-05-06T01:29:36.656Z,51.179211
2023-05-06T01:30:36.704Z,51.179218
2023-05-06T01:31:36.663Z,51.179226
2023-05-06T01:32:36.678Z,51.179256
2023-05-06T01:33:36.614Z,51.179241
2023-05-06T01:34:36.591Z,51.179222
2023-05-06T01:35:36.579Z,51.179234
2023-05-06T01:36:36.565Z,51.179218
2023-05-06T01:37:36.568Z,51.179214
2023-05-06T01:38:36.547Z,51.179173
2023-05-06T01:39:36.521Z,51.179203
2023-05-06T01:40:36.522Z,51.179237
2023-05-06T01:41:36.532Z,51.179234
2023-05-06T01:42:36.498Z,51.179241
2023-05-06T01:43:36.465Z,51.179226
2023-05-06T01:44:36.660Z,51.179199
2023-05-06T01:45:36.461Z,51.179176
2023-05-06T01:46:36.564Z,51.179203
2023-05-06T01:47:36.479Z,51.179207
2023-05-06T01:48:36.444Z,51.179218
2023-05-06T01:49:36.430Z,51.179214
2023-05-06T01:50:36.411Z,51.179222
2023-05-06T01:51:36.395Z,51.179222
2023-05-06T01:52:36.369Z,51.179203
2023-05-06T01:53:36.365Z,51.179222
2023-05-06T01:54:36.377Z,51.179272
2023-05-06T01:55:36.362Z,51.179256
2023-05-06T01:56:36.359Z,51.179241
2023-05-06T01:57:36.323Z,51.179256
2023-05-06T01:58:36.313Z,51.179249
2023-05-06T01:59:36.343Z,51.179241
2023-05-06T02:00:36.296Z,51.179211
2023-05-06T02:01:36.332Z,51.179207
2023-05-06T02:02:36.356Z,51.179203
2023-05-06T02:03:36.330Z,51.179214
2023-05-06T02:04:36.278Z,51.179218
2023-05-06T02:05:36.247Z,51.179253
2023-05-06T02:06:36.230Z,51.179237
2023-05-06T02:07:36.226Z,51.179192
2023-05-06T02:08:36.210Z,51.179180
2023-05-06T02:09:36.193Z,51.179218
2023-05-06T02:10:36.194Z,51.179222
2023-05-06T02:11:36.188Z,51.179218
2023-05-06T02:12:36.189Z,51.179245
2023-05-06T02:13:36.142Z,51.179276
2023-05-06T02:14:36.171Z,51.179249
2023-05-06T02:15:36.129Z,51.179241
2023-05-06T02:16:36.240Z,51.179226
2023-05-06T02:17:36.155Z,51.179230
2023-05-06T02:18:36.166Z,51.179211
2023-05-06T02:19:36.088Z,51.179211
2023-05-06T02:20:36.081Z,51.179211
2023-05-06T02:21:36.086Z,51.179192
2023-05-06T02:22:36.056Z,51.179150
2023-05-06T02:23:36.081Z,51.179203
2023-05-06T02:24:36.055Z,51.179234
2023-05-06T02:25:36.041Z,51.179218
2023-05-06T02:26:36.037Z,51.179188
2023-05-06T02:27:35.993Z,51.179157
2023-05-06T02:28:35.992Z,51.179165
2023-05-06T02:29:35.971Z,51.179165
2023-05-06T02:30:35.982Z,51.179195
2023-05-06T02:31:35.993Z,51.179237
2023-05-06T02:32:35.979Z,51.179230
2023-05-06T02:33:35.922Z,51.179222
2023-05-06T02:34:35.990Z,51.179241
2023-05-06T02:35:35.931Z,51.179234
2023-05-06T02:36:35.901Z,51.179234
2023-05-06T02:37:35.887Z,51.179241
2023-05-06T02:38:35.868Z,51.179241
2023-05-06T02:39:35.868Z,51.179226
2023-05-06T02:40:35.886Z,51.179218
2023-05-06T02:41:35.873Z,51.179222
2023-05-06T02:42:35.933Z,51.179241
2023-05-06T02:43:35.823Z,51.179245
2023-05-06T02:44:35.837Z,51.179245
2023-05-06T02:45:35.847Z,51.179218
2023-05-06T02:46:35.799Z,51.179222
2023-05-06T02:47:35.812Z,51.179237
2023-05-06T02:48:35.759Z,51.179222
2023-05-06T02:49:35.758Z,51.179230
2023-05-06T02:50:35.869Z,51.179241
2023-05-06T02:51:35.736Z,51.179291
2023-05-06T02:52:35.751Z,51.179264
2023-05-06T02:53:35.706Z,51.179230
2023-05-06T02:54:35.703Z,51.179237
2023-05-06T02:55:35.690Z,51.179192
2023-05-06T02:56:35.678Z,51.179195
2023-05-06T02:57:35.655Z,51.179180
2023-05-06T02:58:35.641Z,51.179226
2023-05-06T02:59:35.634Z,51.179234
2023-05-06T03:00:35.624Z,51.179237
2023-05-06T03:01:35.716Z,51.179253
2023-05-06T03:02:35.653Z,51.179256
2023-05-06T03:03:35.589Z,51.179230
2023-05-06T03:04:35.648Z,51.179253
2023-05-06T03:05:35.574Z,51.179214
2023-05-06T03:06:35.602Z,51.179256
2023-05-06T03:07:35.558Z,51.179226
2023-05-06T03:08:35.518Z,51.179256
2023-05-06T03:09:35.522Z,51.179279
2023-05-06T03:10:35.550Z,51.179264
2023-05-06T03:11:35.489Z,51.179234
2023-05-06T03:12:35.488Z,51.179222
2023-05-06T03:13:35.482Z,51.179180
2023-05-06T03:14:35.460Z,51.179192
2023-05-06T03:15:35.454Z,51.179256
2023-05-06T03:16:35.469Z,51.179230
2023-05-06T03:17:35.431Z,51.179176
2023-05-06T03:18:35.401Z,51.179199
2023-05-06T03:19:35.402Z,51.179218
2023-05-06T03:20:35.394Z,51.179214
2023-05-06T03:21:35.422Z,51.179249
2023-05-06T03:22:35.460Z,51.179218
2023-05-06T03:23:35.355Z,51.179207
2023-05-06T03:24:35.347Z,51.179203
2023-05-06T03:25:35.338Z,51.179199
2023-05-06T03:26:35.349Z,51.179226
2023-05-06T03:27:35.316Z,51.179226
2023-05-06T03:28:35.309Z,51.179203
2023-05-06T03:29:35.295Z,51.179211
2023-05-06T03:30:35.306Z,51.179222
2023-05-06T03:31:35.335Z,51.179230
2023-05-06T03:32:35.295Z,51.179218
2023-05-06T03:33:35.288Z,51.179199
2023-05-06T03:34:35.240Z,51.179195
2023-05-06T03:35:35.218Z,51.179192
2023-05-06T03:36:35.229Z,51.179199
2023-05-06T03:37:35.216Z,51.179192
2023-05-06T03:38:35.242Z,51.179207
2023-05-06T03:39:35.170Z,51.179218
2023-05-06T03:40:35.177Z,51.179218
2023-05-06T03:41:35.151Z,51.179214
2023-05-06T03:42:35.154Z,51.179218
2023-05-06T03:43:35.162Z,51.179211
2023-05-06T03:44:35.108Z,51.179180
2023-05-06T03:45:35.098Z,51.179195
2023-05-06T03:46:35.129Z,51.179188
2023-05-06T03:47:35.107Z,51.179192
2023-05-06T03:48:35.069Z,51.179195
2023-05-06T03:49:35.068Z,51.179207
2023-05-06T03:50:35.046Z,51.179214
2023-05-06T03:51:35.037Z,51.179230
2023-05-06T03:52:35.056Z,51.179234
2023-05-06T03:53:35.020Z,51.179249
2023-05-06T03:54:35.011Z,51.179253
2023-05-06T03:55:35.008Z,51.179214
2023-05-06T03:56:34.976Z,51.179195
2023-05-06T03:57:34.978Z,51.179237
2023-05-06T03:58:34.998Z,51.179268
2023-05-06T03:59:34.951Z,51.179256
2023-05-06T04:00:34.936Z,51.179237
2023-05-06T04:01:34.948Z,51.179241
2023-05-06T04:02:34.972Z,51.179203
2023-05-06T04:03:34.974Z,51.179203
2023-05-06T04:04:34.919Z,51.179207
2023-05-06T04:05:34.892Z,51.179195
2023-05-06T04:06:34.866Z,51.179192
2023-05-06T04:07:34.885Z,51.179207
2023-05-06T04:08:34.847Z,51.179237
2023-05-06T04:09:34.839Z,51.179234
2023-05-06T04:10:34.822Z,51.179199
2023-05-06T04:11:34.812Z,51.179211
2023-05-06T04:12:34.852Z,51.179199
2023-05-06T04:13:34.809Z,51.179211
2023-05-06T04:14:34.768Z,51.179214
2023-05-06T04:15:34.765Z,51.179192
2023-05-06T04:16:34.825Z,51.179192
2023-05-06T04:17:34.777Z,51.179211
2023-05-06T04:18:34.734Z,51.179214
2023-05-06T04:19:34.715Z,51.179214
2023-05-06T04:20:34.711Z,51.179222
2023-05-06T04:21:34.706Z,51.179234
2023-05-06T04:22:34.698Z,51.179234
2023-05-06T04:23:34.674Z,51.179203
2023-05-06T04:24:34.677Z,51.179195
2023-05-06T04:25:34.653Z,51.179192
2023-05-06T04:26:34.808Z,51.179199
2023-05-06T04:27:34.675Z,51.179169
2023-05-06T04:28:34.631Z,51.179157
2023-05-06T04:29:34.624Z,51.179153
2023-05-06T04:30:34.614Z,51.179188
2023-05-06T04:31:34.624Z,51.179153
2023-05-06T04:32:34.651Z,51.179192
2023-05-06T04:33:34.623Z,51.179230
2023-05-06T04:34:34.568Z,51.179241
2023-05-06T04:35:34.544Z,51.179234
2023-05-06T04:36:34.529Z,51.179245
2023-05-06T04:37:34.515Z,51.179245
2023-05-06T04:38:34.510Z,51.179230
2023-05-06T04:39:34.518Z,51.179237
2023-05-06T04:40:34.489Z,51.179245
2023-05-06T04:41:34.475Z,51.179241
2023-05-06T04:42:34.530Z,51.179237
2023-05-06T04:43:34.448Z,51.179199
2023-05-06T04:44:34.452Z,51.179214
2023-05-06T04:45:34.546Z,51.179226
2023-05-06T04:46:34.430Z,51.179222
2023-05-06T04:47:34.424Z,51.179222
2023-05-06T04:48:34.396Z,51.179249
2023-05-06T04:49:34.374Z,51.179218
2023-05-06T04:50:34.396Z,51.179203
2023-05-06T04:51:34.386Z,51.179230
2023-05-06T04:52:34.341Z,51.179230
2023-05-06T04:53:34.331Z,51.179234
2023-05-06T04:54:34.337Z,51.179230
2023-05-06T04:55:34.313Z,51.179237
2023-05-06T04:56:34.305Z,51.179237
2023-05-06T04:57:34.288Z,51.179245
2023-05-06T04:58:34.296Z,51.179222
2023-05-06T04:59:34.282Z,51.179245
2023-05-06T05:00:34.275Z,51.179249
2023-05-06T05:01:34.279Z,51.179272
2023-05-06T05:02:34.294Z,51.179253
2023-05-06T05:03:34.386Z,51.179253
2023-05-06T05:04:34.197Z,51.179279
2023-05-06T05:05:34.199Z,51.179287
2023-05-06T05:06:34.214Z,51.179264
2023-05-06T05:07:34.174Z,51.179283
2023-05-06T05:08:34.164Z,51.179253
2023-05-06T05:09:34.177Z,51.179234
2023-05-06T05:10:34.131Z,51.179192
2023-05-06T05:11:34.127Z,51.179199
2023-05-06T05:12:34.139Z,51.179203
2023-05-06T05:13:34.126Z,51.179245
2023-05-06T05:14:34.210Z,51.179260
2023-05-06T05:15:34.090Z,51.179260
2023-05-06T05:16:34.138Z,51.179264
2023-05-06T05:17:34.077Z,51.179230
2023-05-06T05:18:34.080Z,51.179245
2023-05-06T05:19:34.046Z,51.179256
2023-05-06T05:20:34.020Z,51.179260
2023-05-06T05:21:34.024Z,51.179245
2023-05-06T05:22:34.014Z,51.179237
2023-05-06T05:23:34.003Z,51.179241
2023-05-06T05:24:33.994Z,51.179329
2023-05-06T05:25:33.955Z,51.179317
2023-05-06T05:26:33.971Z,51.179298
2023-05-06T05:27:33.945Z,51.179256
2023-05-06T05:28:33.925Z,51.179253
2023-05-06T05:29:33.924Z,51.179268
2023-05-06T05:30:33.995Z,51.179264
2023-05-06T05:31:33.984Z,51.179272
2023-05-06T05:32:33.909Z,51.179272
2023-05-06T05:33:33.933Z,51.179230
2023-05-06T05:34:33.853Z,51.179237
2023-05-06T05:35:33.850Z,51.179222
2023-05-06T05:36:33.858Z,51.179256
2023-05-06T05:37:33.845Z,51.179295
2023-05-06T05:38:33.827Z,51.179260
2023-05-06T05:39:33.794Z,51.179268
2023-05-06T05:40:34.789Z,51.179249
2023-05-06T05:41:33.774Z,51.179272
2023-05-06T05:42:33.808Z,51.179241
2023-05-06T05:43:33.772Z,51.179237
2023-05-06T05:44:33.738Z,51.179256
2023-05-06T05:45:33.744Z,51.179272
2023-05-06T05:46:33.804Z,51.179264
2023-05-06T05:47:33.743Z,51.179260
2023-05-06T05:48:33.723Z,51.179256
2023-05-06T05:49:33.691Z,51.179272
2023-05-06T05:50:33.706Z,51.179268
2023-05-06T05:51:33.666Z,51.179276
2023-05-06T05:52:33.651Z,51.179234
2023-05-06T05:53:33.663Z,51.179192
2023-05-06T05:54:33.636Z,51.179188
2023-05-06T05:55:33.625Z,51.179218
2023-05-06T05:56:33.624Z,51.179272
2023-05-06T05:57:33.606Z,51.179234
2023-05-06T05:58:33.594Z,51.179295
2023-05-06T05:59:33.597Z,51.179317
2023-05-06T06:00:33.584Z,51.179291
2023-05-06T06:01:33.578Z,51.179291
2023-05-06T06:02:33.702Z,51.179298
2023-05-06T06:03:33.636Z,51.179283
2023-05-06T06:04:33.574Z,51.179264
2023-05-06T06:05:33.495Z,51.179268
2023-05-06T06:06:33.502Z,51.179302
2023-05-06T06:07:33.478Z,51.179268
2023-05-06T06:08:33.476Z,51.179211
2023-05-06T06:09:33.483Z,51.179169
2023-05-06T06:10:33.478Z,51.179173
2023-05-06T06:11:33.446Z,51.179211
2023-05-06T06:12:33.447Z,51.179249
2023-05-06T06:13:33.431Z,51.179249
2023-05-06T06:14:33.408Z,51.179234
2023-05-06T06:15:33.409Z,51.179295
2023-05-06T06:16:33.399Z,51.179306
2023-05-06T06:17:33.378Z,51.179249
2023-05-06T06:18:33.447Z,51.179241
2023-05-06T06:19:33.349Z,51.179268
2023-05-06T06:20:33.349Z,51.179272
2023-05-06T06:21:33.325Z,51.179276
2023-05-06T06:22:33.309Z,51.179283
2023-05-06T06:23:33.304Z,51.179264
2023-05-06T06:24:33.295Z,51.179256
2023-05-06T06:25:33.273Z,51.179253
2023-05-06T06:26:33.276Z,51.179249
2023-05-06T06:27:33.256Z,51.179260
2023-05-06T06:28:33.264Z,51.179253
2023-05-06T06:29:33.236Z,51.179260
2023-05-06T06:30:33.227Z,51.179264
2023-05-06T06:31:33.255Z,51.179234
2023-05-06T06:32:33.225Z,51.179260
2023-05-06T06:33:33.181Z,51.179253
2023-05-06T06:34:33.262Z,51.179207
2023-05-06T06:35:33.175Z,51.179241
2023-05-06T06:36:33.148Z,51.179295
2023-05-06T06:37:33.146Z,51.179249
2023-05-06T06:38:33.156Z,51.179260
2023-05-06T06:39:33.136Z,51.179249
2023-05-06T06:40:33.131Z,51.179199
2023-05-06T06:41:33.100Z,51.179230
2023-05-06T06:42:33.076Z,51.179218
2023-05-06T06:43:33.067Z,51.179260
2023-05-06T06:44:34.073Z,51.179287
2023-05-06T06:45:33.089Z,51.179310
2023-05-06T06:46:33.054Z,51.179283
2023-05-06T06:47:33.048Z,51.179298
2023-05-06T06:48:34.025Z,51.179295
2023-05-06T06:49:33.027Z,51.179276
2023-05-06T06:50:33.144Z,51.179283
2023-05-06T06:51:32.990Z,51.179329
2023-05-06T06:52:32.974Z,51.179329
2023-05-06T06:53:32.980Z,51.179314
2023-05-06T06:54:32.971Z,51.179295
2023-05-06T06:55:32.941Z,51.179260
2023-05-06T06:56:32.955Z,51.179268
2023-05-06T06:57:32.921Z,51.179302
2023-05-06T06:58:32.892Z,51.179306
2023-05-06T06:59:32.914Z,51.179348
2023-05-06T07:00:32.918Z,51.179306
2023-05-06T07:01:32.921Z,51.179279
2023-05-06T07:02:32.925Z,51.179272
2023-05-06T07:03:32.888Z,51.179310
2023-05-06T07:04:32.903Z,51.179356
2023-05-06T07:05:32.831Z,51.179298
2023-05-06T07:06:32.877Z,51.179253
2023-05-06T07:07:32.835Z,51.179234
2023-05-06T07:08:32.794Z,51.179314
2023-05-06T07:09:35.481Z,51.179249
2023-05-06T07:10:33.763Z,51.179234
2023-05-06T07:11:32.808Z,51.179218
2023-05-06T07:12:32.775Z,51.179222
2023-05-06T07:13:32.754Z,51.179256
2023-05-06T07:14:32.708Z,51.179314
2023-05-06T07:15:32.708Z,51.179279
2023-05-06T07:16:32.894Z,51.179218
2023-05-06T07:17:32.716Z,51.179298
2023-05-06T07:18:32.680Z,51.179276
2023-05-06T07:19:32.662Z,51.179295
2023-05-06T07:20:32.651Z,51.179287
2023-05-06T07:21:32.668Z,51.179249
2023-05-06T07:22:32.714Z,51.179234
2023-05-06T07:23:32.674Z,51.179241
2023-05-06T07:24:32.612Z,51.179237
2023-05-06T07:25:32.596Z,51.179218
2023-05-06T07:26:32.601Z,51.179260
2023-05-06T07:27:32.575Z,51.179256
2023-05-06T07:28:32.593Z,51.179268
2023-05-06T07:29:32.566Z,51.179264
2023-05-06T07:30:32.559Z,51.179283
2023-05-06T07:31:32.617Z,51.179260
2023-05-06T07:32:32.540Z,51.179268
2023-05-06T07:33:32.534Z,51.179260
2023-05-06T07:34:32.519Z,51.179249
2023-05-06T07:35:32.496Z,51.179234
2023-05-06T07:36:32.486Z,51.179333
2023-05-06T07:37:32.494Z,51.179295
2023-05-06T07:38:32.473Z,51.179256
2023-05-06T07:39:32.486Z,51.179287
2023-05-06T07:40:32.450Z,51.179298
2023-05-06T07:41:32.425Z,51.179295
2023-05-06T07:42:32.459Z,51.179245
2023-05-06T07:43:32.434Z,51.179234
2023-05-06T07:44:32.405Z,51.179256
2023-05-06T07:45:32.399Z,51.179276
2023-05-06T07:46:32.487Z,51.179310
2023-05-06T07:47:32.474Z,51.179302
2023-05-06T07:48:32.389Z,51.179253
2023-05-06T07:49:32.338Z,51.179241
2023-05-06T07:50:32.333Z,51.179306
2023-05-06T07:51:32.308Z,51.179306
2023-05-06T07:52:32.317Z,51.179321
2023-05-06T07:53:32.285Z,51.179321
2023-05-06T07:54:32.308Z,51.179295
2023-05-06T07:55:33.893Z,51.179268
2023-05-06T07:56:32.254Z,51.179260
2023-05-06T07:57:32.266Z,51.179283
2023-05-06T07:58:32.233Z,51.179291
2023-05-06T07:59:32.227Z,51.179245
2023-05-06T08:00:32.201Z,51.179222
2023-05-06T08:01:32.195Z,51.179226
2023-05-06T08:02:32.326Z,51.179298
2023-05-06T08:03:32.291Z,51.179283
2023-05-06T08:04:32.225Z,51.179237
2023-05-06T08:05:32.146Z,51.179207
2023-05-06T08:06:32.137Z,51.179234
2023-05-06T08:07:32.142Z,51.179302
2023-05-06T08:08:32.129Z,51.179306
2023-05-06T08:09:32.099Z,51.179287
2023-05-06T08:10:32.167Z,51.179287
2023-05-06T08:11:32.081Z,51.179310
2023-05-06T08:12:32.108Z,51.179295
2023-05-06T08:13:32.053Z,51.179249
2023-05-06T08:14:32.078Z,51.179245
2023-05-06T08:15:32.039Z,51.179256
2023-05-06T08:16:32.070Z,51.179268
2023-05-06T08:17:32.069Z,51.179279
2023-05-06T08:18:32.043Z,51.179283
2023-05-06T08:19:31.988Z,51.179256
2023-05-06T08:20:32.005Z,51.179245
2023-05-06T08:21:31.995Z,51.179272
2023-05-06T08:22:31.971Z,51.179306
2023-05-06T08:23:31.950Z,51.179314
2023-05-06T08:24:31.939Z,51.179291
2023-05-06T08:25:31.938Z,51.179230
2023-05-06T08:26:32.104Z,51.179230
2023-05-06T08:27:31.909Z,51.179245
2023-05-06T08:28:31.919Z,51.179245
2023-05-06T08:29:31.972Z,51.179226
2023-05-06T08:30:31.884Z,51.179253
2023-05-06T08:31:31.915Z,51.179253
2023-05-06T08:32:31.900Z,51.179234
2023-05-06T08:33:31.880Z,51.179207
2023-05-06T08:34:31.857Z,51.179214
2023-05-06T08:35:31.826Z,51.179218
2023-05-06T08:36:31.813Z,51.179237
2023-05-06T08:37:31.823Z,51.179260
2023-05-06T08:38:31.788Z,51.179260
2023-05-06T08:39:31.776Z,51.179283
2023-05-06T08:40:32.759Z,51.179260
2023-05-06T08:41:31.761Z,51.179237
2023-05-06T08:42:31.843Z,51.179237
2023-05-06T08:43:31.737Z,51.179253
2023-05-06T08:44:31.741Z,51.179253
2023-05-06T08:45:31.741Z,51.179241
2023-05-06T08:46:31.699Z,51.179245
2023-05-06T08:47:31.690Z,51.179241
2023-05-06T08:48:31.674Z,51.179222
2023-05-06T08:49:31.674Z,51.179218
2023-05-06T08:50:31.653Z,51.179199
2023-05-06T08:51:31.694Z,51.179230
2023-05-06T08:52:31.620Z,51.179222
2023-05-06T08:53:31.628Z,51.179253
2023-05-06T08:54:31.619Z,51.179222
2023-05-06T08:55:31.612Z,51.179283
2023-05-06T08:56:31.592Z,51.179287
2023-05-06T08:57:31.584Z,51.179310
2023-05-06T08:58:31.562Z,51.179375
2023-05-06T08:59:31.560Z,51.179314
2023-05-06T09:00:31.550Z,51.179302
2023-05-06T09:01:31.586Z,51.179302
2023-05-06T09:02:31.602Z,51.179317
2023-05-06T09:03:31.671Z,51.179329
2023-05-06T09:04:31.519Z,51.179268
2023-05-06T09:05:31.486Z,51.179317
2023-05-06T09:06:31.483Z,51.179302
2023-05-06T09:07:31.487Z,51.179291
2023-05-06T09:08:31.443Z,51.179298
2023-05-06T09:09:31.447Z,51.179317
2023-05-06T09:10:31.459Z,51.179279
2023-05-06T09:11:31.428Z,51.179253
2023-05-06T09:12:31.404Z,51.179272
2023-05-06T09:13:31.401Z,51.179295
2023-05-06T09:14:31.400Z,51.179279
2023-05-06T09:15:31.397Z,51.179295
2023-05-06T09:16:31.419Z,51.179279
2023-05-06T09:17:31.415Z,51.179283
2023-05-06T09:18:31.367Z,51.179260
2023-05-06T09:19:31.351Z,51.179234
2023-05-06T09:20:31.346Z,51.179287
2023-05-06T09:21:31.342Z,51.179306
2023-05-06T09:22:31.326Z,51.179337
2023-05-06T09:23:31.303Z,51.179279
2023-05-06T09:24:31.316Z,51.179295
2023-05-06T09:25:31.286Z,51.179333
2023-05-06T09:26:31.280Z,51.179291
2023-05-06T09:27:31.302Z,51.179226
2023-05-06T09:28:31.271Z,51.179260
2023-05-06T09:29:31.250Z,51.179195
2023-05-06T09:30:31.305Z,51.179207
2023-05-06T09:31:31.355Z,51.179165
2023-05-06T09:32:31.210Z,51.179199
2023-05-06T09:33:31.186Z,51.179214
2023-05-06T09:34:31.324Z,51.179245
2023-05-06T09:35:31.175Z,51.179249
2023-05-06T09:36:31.183Z,51.179249
2023-05-06T09:37:31.632Z,51.179276
2023-05-06T09:38:31.137Z,51.179253
2023-05-06T09:39:31.131Z,51.179245
2023-05-06T09:40:31.123Z,51.179230
2023-05-06T09:41:31.116Z,51.179237
2023-05-06T09:42:31.084Z,51.179226
2023-05-06T09:43:31.087Z,51.179249
2023-05-06T09:44:31.089Z,51.179260
2023-05-06T09:45:31.066Z,51.179245
2023-05-06T09:46:31.223Z,51.179256
2023-05-06T09:47:31.057Z,51.179241
2023-05-06T09:48:31.058Z,51.179234
2023-05-06T09:49:31.059Z,51.179218
2023-05-06T09:50:31.074Z,51.179188
2023-05-06T09:51:31.042Z,51.179199
2023-05-06T09:52:31.047Z,51.179184
2023-05-06T09:53:30.995Z,51.179203
2023-05-06T09:54:30.985Z,51.179195
2023-05-06T09:55:30.965Z,51.179203
2023-05-06T09:56:30.961Z,51.179237
2023-05-06T09:57:30.968Z,51.179207
2023-05-06T09:58:30.939Z,51.179226
2023-05-06T09:59:30.942Z,51.179218
2023-05-06T10:00:30.945Z,51.179222
2023-05-06T10:01:36.939Z,51.179226
2023-05-06T10:02:33.163Z,51.179214
2023-05-06T10:03:31.026Z,51.179241
2023-05-06T10:04:30.998Z,51.179234
2023-05-06T10:05:31.116Z,51.179230
2023-05-06T10:06:30.855Z,51.179256
2023-05-06T10:07:30.827Z,51.179253
2023-05-06T10:08:30.836Z,51.179199
2023-05-06T10:09:30.800Z,51.179192
2023-05-06T10:10:30.813Z,51.179188
2023-05-06T10:11:30.849Z,51.179195
2023-05-06T10:12:30.771Z,51.179195
2023-05-06T10:13:30.751Z,51.179188
2023-05-06T10:14:30.776Z,51.179218
2023-05-06T10:15:30.748Z,51.179214
2023-05-06T10:16:30.763Z,51.179214
2023-05-06T10:17:30.764Z,51.179207
2023-05-06T10:18:30.792Z,51.179211
2023-05-06T10:19:30.700Z,51.179176
2023-05-06T10:20:30.690Z,51.179192
2023-05-06T10:21:30.672Z,51.179184
2023-05-06T10:22:30.685Z,51.179199
2023-05-06T10:23:30.676Z,51.179173
2023-05-06T10:24:30.636Z,51.179188
2023-05-06T10:25:30.632Z,51.179184
2023-05-06T10:26:30.637Z,51.179184
2023-05-06T10:27:30.604Z,51.179188
2023-05-06T10:28:31.698Z,51.179192
2023-05-06T10:29:30.588Z,51.179203
2023-05-06T10:30:30.577Z,51.179203
2023-05-06T10:31:30.596Z,51.179199
2023-05-06T10:32:30.584Z,51.179211
2023-05-06T10:33:30.542Z,51.179203
2023-05-06T10:34:30.598Z,51.179195
2023-05-06T10:35:30.535Z,51.179192
2023-05-06T10:36:30.495Z,51.179211
2023-05-06T10:37:30.497Z,51.179211
2023-05-06T10:38:30.508Z,51.179192
2023-05-06T10:39:30.480Z,51.179192
2023-05-06T10:40:30.463Z,51.179188
2023-05-06T10:41:30.470Z,51.179203
2023-05-06T10:42:30.441Z,51.179203
2023-05-06T10:43:30.448Z,51.179241
2023-05-06T10:44:30.471Z,51.179222
2023-05-06T10:45:30.420Z,51.179222
2023-05-06T10:46:30.421Z,51.179188
2023-05-06T10:47:30.426Z,51.179199
2023-05-06T10:48:30.413Z,51.179207
2023-05-06T10:49:30.391Z,51.179214
2023-05-06T10:50:30.432Z,51.179199
2023-05-06T10:51:30.385Z,51.179211
2023-05-06T10:52:30.332Z,51.179241
2023-05-06T10:53:30.314Z,51.179222
2023-05-06T10:54:30.324Z,51.179207
2023-05-06T10:55:30.419Z,51.179218
2023-05-06T10:56:30.304Z,51.179222
2023-05-06T10:57:30.272Z,51.179222
2023-05-06T10:58:30.278Z,51.179253
2023-05-06T10:59:30.268Z,51.179264
2023-05-06T11:00:30.276Z,51.179268
2023-05-06T11:01:30.318Z,51.179234
2023-05-06T11:02:30.297Z,51.179222
2023-05-06T11:03:30.379Z,51.179237
2023-05-06T11:04:30.244Z,51.179237
2023-05-06T11:05:30.330Z,51.179260
2023-05-06T11:06:30.248Z,51.179272
2023-05-06T11:07:30.200Z,51.179260
2023-05-06T11:08:30.166Z,51.179260
2023-05-06T11:09:30.161Z,51.179211
2023-05-06T11:10:30.191Z,51.179195
2023-05-06T11:11:30.149Z,51.179195
2023-05-06T11:12:30.155Z,51.179241
2023-05-06T11:13:30.262Z,51.179260
2023-05-06T11:14:30.112Z,51.179264
2023-05-06T11:15:30.117Z,51.179237
2023-05-06T11:16:30.100Z,51.179237
2023-05-06T11:17:30.119Z,51.179256
2023-05-06T11:18:30.039Z,51.179272
2023-05-06T11:19:30.046Z,51.179237
2023-05-06T11:20:30.037Z,51.179222
2023-05-06T11:21:30.035Z,51.179230
2023-05-06T11:22:30.064Z,51.179253
2023-05-06T11:23:30.033Z,51.179256
2023-05-06T11:24:29.996Z,51.179241